sensor_id;sensor_type;location;lat;lon;timestamp;temperature;humidity
290;DHT22;13193;48.874;9.086;2022-12-29T00:01:52;10.50;1.00
290;DHT22;13193;48.874;9.086;2022-12-29T00:04:18;10.50;1.00
290;DHT22;13193;48.874;9.086;2022-12-29T00:06:45;10.50;1.00
290;DHT22;13193;48.874;9.086;2022-12-29T00:09:12;10.60;1.00
290;DHT22;13193;48.874;9.086;2022-12-29T00:11:38;10.60;1.00
290;DHT22;13193;48.874;9.086;2022-12-29T00:14:04;10.60;1.00
290;DHT22;13193;48.874;9.086;2022-12-29T00:16:48;10.60;1.00
290;DHT22;13193;48.874;9.086;2022-12-29T00:19:13;10.70;1.00
290;DHT22;13193;48.874;9.086;2022-12-29T00:21:58;10.70;1.00
290;DHT22;13193;48.874;9.086;2022-12-29T00:24:43;10.70;1.00
290;DHT22;13193;48.874;9.086;2022-12-29T00:27:19;10.70;1.00
290;DHT22;13193;48.874;9.086;2022-12-29T00:30:08;10.70;1.00
290;DHT22;13193;48.874;9.086;2022-12-29T00:32:53;10.70;1.00
290;DHT22;13193;48.874;9.086;2022-12-29T00:35:40;10.80;1.00
290;DHT22;13193;48.874;9.086;2022-12-29T00:38:10;10.80;1.00
290;DHT22;13193;48.874;9.086;2022-12-29T00:40:54;10.80;1.00
290;DHT22;13193;48.874;9.086;2022-12-29T00:43:38;10.90;1.00
290;DHT22;13193;48.874;9.086;2022-12-29T00:46:28;10.90;1.00
290;DHT22;13193;48.874;9.086;2022-12-29T00:48:53;11.00;1.00
290;DHT22;13193;48.874;9.086;2022-12-29T00:51:37;11.00;1.00
290;DHT22;13193;48.874;9.086;2022-12-29T00:54:03;10.90;1.00
290;DHT22;13193;48.874;9.086;2022-12-29T00:56:29;10.90;1.00
290;DHT22;13193;48.874;9.086;2022-12-29T00:59:03;11.00;1.00
290;DHT22;13193;48.874;9.086;2022-12-29T01:01:29;11.00;1.00
290;DHT22;13193;48.874;9.086;2022-12-29T01:03:55;11.00;1.00
290;DHT22;13193;48.874;9.086;2022-12-29T01:06:20;11.00;1.00
290;DHT22;13193;48.874;9.086;2022-12-29T01:08:46;11.00;1.00
290;DHT22;13193;48.874;9.086;2022-12-29T01:11:12;11.20;1.00
290;DHT22;13193;48.874;9.086;2022-12-29T01:13:39;11.10;1.00
290;DHT22;13193;48.874;9.086;2022-12-29T01:16:07;11.10;1.00
290;DHT22;13193;48.874;9.086;2022-12-29T01:18:33;11.10;1.00
290;DHT22;13193;48.874;9.086;2022-12-29T01:21:06;11.20;1.00
290;DHT22;13193;48.874;9.086;2022-12-29T01:23:32;11.20;1.00
290;DHT22;13193;48.874;9.086;2022-12-29T01:26:11;11.20;1.00
290;DHT22;13193;48.874;9.086;2022-12-29T01:28:37;11.20;1.00
290;DHT22;13193;48.874;9.086;2022-12-29T01:31:06;11.20;1.00
290;DHT22;13193;48.874;9.086;2022-12-29T01:33:32;11.30;1.00
290;DHT22;13193;48.874;9.086;2022-12-29T01:36:05;11.30;1.00
290;DHT22;13193;48.874;9.086;2022-12-29T01:38:32;11.30;1.00
290;DHT22;13193;48.874;9.086;2022-12-29T01:40:58;11.40;1.00
290;DHT22;13193;48.874;9.086;2022-12-29T01:43:40;11.40;1.00
290;DHT22;13193;48.874;9.086;2022-12-29T01:46:22;11.50;1.00
290;DHT22;13193;48.874;9.086;2022-12-29T01:51:25;11.50;1.00
290;DHT22;13193;48.874;9.086;2022-12-29T01:53:54;11.50;1.00
290;DHT22;13193;48.874;9.086;2022-12-29T01:56:21;11.50;1.00
290;DHT22;13193;48.874;9.086;2022-12-29T01:58:49;11.60;1.00
290;DHT22;13193;48.874;9.086;2022-12-29T02:01:19;11.50;1.00
290;DHT22;13193;48.874;9.086;2022-12-29T02:03:47;11.50;1.00
290;DHT22;13193;48.874;9.086;2022-12-29T02:06:27;11.50;1.00
290;DHT22;13193;48.874;9.086;2022-12-29T02:08:55;11.40;1.00
290;DHT22;13193;48.874;9.086;2022-12-29T02:11:23;11.50;1.00
290;DHT22;13193;48.874;9.086;2022-12-29T02:13:49;11.50;1.00
290;DHT22;13193;48.874;9.086;2022-12-29T02:19:36;11.50;1.00
290;DHT22;13193;48.874;9.086;2022-12-29T02:27:50;11.50;1.00
290;DHT22;13193;48.874;9.086;2022-12-29T02:30:43;11.50;1.00
290;DHT22;13193;48.874;9.086;2022-12-29T02:36:15;11.50;1.00
290;DHT22;13193;48.874;9.086;2022-12-29T02:41:51;11.60;1.00
290;DHT22;13193;48.874;9.086;2022-12-29T02:47:14;11.70;1.00
290;DHT22;13193;48.874;9.086;2022-12-29T02:52:11;11.80;1.00
290;DHT22;13193;48.874;9.086;2022-12-29T02:54:40;11.80;1.00
290;DHT22;13193;48.874;9.086;2022-12-29T02:59:40;11.80;1.00
290;DHT22;13193;48.874;9.086;2022-12-29T03:08:36;12.00;1.00
290;DHT22;13193;48.874;9.086;2022-12-29T03:11:10;12.00;1.00
290;DHT22;13193;48.874;9.086;2022-12-29T03:14:32;12.00;1.00
290;DHT22;13193;48.874;9.086;2022-12-29T03:17:42;12.00;1.00
290;DHT22;13193;48.874;9.086;2022-12-29T03:20:17;12.10;1.00
290;DHT22;13193;48.874;9.086;2022-12-29T03:22:45;12.20;1.00
290;DHT22;13193;48.874;9.086;2022-12-29T03:25:32;12.20;1.00
290;DHT22;13193;48.874;9.086;2022-12-29T03:28:02;12.20;1.00
290;DHT22;13193;48.874;9.086;2022-12-29T03:30:32;12.30;1.00
290;DHT22;13193;48.874;9.086;2022-12-29T03:33:02;12.10;1.00
290;DHT22;13193;48.874;9.086;2022-12-29T03:35:31;12.20;1.00
290;DHT22;13193;48.874;9.086;2022-12-29T03:38:02;12.30;1.00
290;DHT22;13193;48.874;9.086;2022-12-29T03:40:32;12.20;1.00
290;DHT22;13193;48.874;9.086;2022-12-29T03:42:59;12.10;1.00
290;DHT22;13193;48.874;9.086;2022-12-29T03:45:25;12.20;1.00
290;DHT22;13193;48.874;9.086;2022-12-29T03:47:52;12.20;1.00
290;DHT22;13193;48.874;9.086;2022-12-29T03:50:18;12.20;1.00
290;DHT22;13193;48.874;9.086;2022-12-29T03:52:50;12.20;1.00
290;DHT22;13193;48.874;9.086;2022-12-29T03:55:17;12.10;1.00
290;DHT22;13193;48.874;9.086;2022-12-29T03:57:43;12.10;1.00
290;DHT22;13193;48.874;9.086;2022-12-29T04:00:09;12.10;1.00
290;DHT22;13193;48.874;9.086;2022-12-29T04:02:35;12.10;1.00
290;DHT22;13193;48.874;9.086;2022-12-29T04:05:02;12.20;1.00
290;DHT22;13193;48.874;9.086;2022-12-29T04:07:29;12.00;1.00
290;DHT22;13193;48.874;9.086;2022-12-29T04:09:54;12.00;1.00
290;DHT22;13193;48.874;9.086;2022-12-29T04:12:20;11.90;1.00
290;DHT22;13193;48.874;9.086;2022-12-29T04:14:45;11.90;1.00
290;DHT22;13193;48.874;9.086;2022-12-29T04:17:11;11.90;1.00
290;DHT22;13193;48.874;9.086;2022-12-29T04:19:37;11.90;1.00
290;DHT22;13193;48.874;9.086;2022-12-29T04:22:04;12.10;1.00
290;DHT22;13193;48.874;9.086;2022-12-29T04:24:31;12.30;1.00
290;DHT22;13193;48.874;9.086;2022-12-29T04:26:56;11.90;1.00
290;DHT22;13193;48.874;9.086;2022-12-29T04:29:22;12.00;1.00
290;DHT22;13193;48.874;9.086;2022-12-29T04:31:54;12.00;1.00
290;DHT22;13193;48.874;9.086;2022-12-29T04:34:21;12.20;1.00
290;DHT22;13193;48.874;9.086;2022-12-29T04:36:47;12.10;1.00
290;DHT22;13193;48.874;9.086;2022-12-29T04:39:12;12.10;1.00
290;DHT22;13193;48.874;9.086;2022-12-29T04:41:39;12.10;1.00
290;DHT22;13193;48.874;9.086;2022-12-29T04:44:05;12.00;1.00
290;DHT22;13193;48.874;9.086;2022-12-29T04:46:31;12.00;1.00
290;DHT22;13193;48.874;9.086;2022-12-29T04:48:59;11.90;1.00
290;DHT22;13193;48.874;9.086;2022-12-29T04:51:29;11.80;1.00
290;DHT22;13193;48.874;9.086;2022-12-29T04:53:55;11.70;1.00
290;DHT22;13193;48.874;9.086;2022-12-29T04:56:23;11.70;1.00
290;DHT22;13193;48.874;9.086;2022-12-29T04:58:48;11.60;1.00
290;DHT22;13193;48.874;9.086;2022-12-29T05:01:14;11.60;1.00
290;DHT22;13193;48.874;9.086;2022-12-29T05:03:41;11.50;1.00
290;DHT22;13193;48.874;9.086;2022-12-29T05:06:06;11.40;1.00
290;DHT22;13193;48.874;9.086;2022-12-29T05:08:32;11.40;1.00
290;DHT22;13193;48.874;9.086;2022-12-29T05:10:59;11.50;1.00
290;DHT22;13193;48.874;9.086;2022-12-29T05:13:24;11.30;1.00
290;DHT22;13193;48.874;9.086;2022-12-29T05:15:51;11.20;1.00
290;DHT22;13193;48.874;9.086;2022-12-29T05:18:18;11.10;1.00
290;DHT22;13193;48.874;9.086;2022-12-29T05:20:44;11.00;1.00
290;DHT22;13193;48.874;9.086;2022-12-29T05:23:10;10.90;1.00
290;DHT22;13193;48.874;9.086;2022-12-29T05:25:36;10.80;1.00
290;DHT22;13193;48.874;9.086;2022-12-29T05:28:01;10.80;1.00
290;DHT22;13193;48.874;9.086;2022-12-29T05:30:27;10.80;1.00
290;DHT22;13193;48.874;9.086;2022-12-29T05:32:53;10.80;1.00
290;DHT22;13193;48.874;9.086;2022-12-29T05:35:18;10.80;1.00
290;DHT22;13193;48.874;9.086;2022-12-29T05:37:44;10.90;1.00
290;DHT22;13193;48.874;9.086;2022-12-29T05:40:10;10.90;1.00
290;DHT22;13193;48.874;9.086;2022-12-29T05:42:36;11.00;1.00
290;DHT22;13193;48.874;9.086;2022-12-29T05:45:02;11.10;1.00
290;DHT22;13193;48.874;9.086;2022-12-29T05:47:27;11.20;1.00
290;DHT22;13193;48.874;9.086;2022-12-29T05:49:53;11.60;1.00
290;DHT22;13193;48.874;9.086;2022-12-29T05:52:19;11.40;1.00
290;DHT22;13193;48.874;9.086;2022-12-29T05:54:45;11.40;1.00
290;DHT22;13193;48.874;9.086;2022-12-29T05:57:10;11.90;1.00
290;DHT22;13193;48.874;9.086;2022-12-29T05:59:36;11.70;1.00
290;DHT22;13193;48.874;9.086;2022-12-29T06:02:02;11.80;1.00
290;DHT22;13193;48.874;9.086;2022-12-29T06:04:28;12.00;1.00
290;DHT22;13193;48.874;9.086;2022-12-29T06:06:53;11.90;1.00
290;DHT22;13193;48.874;9.086;2022-12-29T06:09:19;11.90;1.00
290;DHT22;13193;48.874;9.086;2022-12-29T06:11:45;11.90;1.00
290;DHT22;13193;48.874;9.086;2022-12-29T06:14:10;11.70;1.00
290;DHT22;13193;48.874;9.086;2022-12-29T06:16:36;11.80;1.00
290;DHT22;13193;48.874;9.086;2022-12-29T06:19:02;11.70;1.00
290;DHT22;13193;48.874;9.086;2022-12-29T06:21:27;11.70;1.00
290;DHT22;13193;48.874;9.086;2022-12-29T06:23:53;11.70;1.00
290;DHT22;13193;48.874;9.086;2022-12-29T06:26:19;11.70;1.00
290;DHT22;13193;48.874;9.086;2022-12-29T06:28:44;11.60;1.00
290;DHT22;13193;48.874;9.086;2022-12-29T06:31:12;11.60;1.00
290;DHT22;13193;48.874;9.086;2022-12-29T06:33:38;11.70;1.00
290;DHT22;13193;48.874;9.086;2022-12-29T06:36:04;11.70;1.00
290;DHT22;13193;48.874;9.086;2022-12-29T06:38:29;11.60;1.00
290;DHT22;13193;48.874;9.086;2022-12-29T06:40:55;11.50;1.00
290;DHT22;13193;48.874;9.086;2022-12-29T06:43:21;11.50;1.00
290;DHT22;13193;48.874;9.086;2022-12-29T06:45:46;11.50;1.00
290;DHT22;13193;48.874;9.086;2022-12-29T06:48:12;11.80;1.00
290;DHT22;13193;48.874;9.086;2022-12-29T06:50:39;11.50;1.00
290;DHT22;13193;48.874;9.086;2022-12-29T06:53:06;11.50;1.00
290;DHT22;13193;48.874;9.086;2022-12-29T06:55:31;11.40;1.00
290;DHT22;13193;48.874;9.086;2022-12-29T06:57:58;11.40;1.00
290;DHT22;13193;48.874;9.086;2022-12-29T07:00:25;11.40;1.00
290;DHT22;13193;48.874;9.086;2022-12-29T07:02:50;11.10;1.00
290;DHT22;13193;48.874;9.086;2022-12-29T07:05:16;11.10;1.00
290;DHT22;13193;48.874;9.086;2022-12-29T07:07:42;10.90;1.00
290;DHT22;13193;48.874;9.086;2022-12-29T07:10:08;10.90;1.00
290;DHT22;13193;48.874;9.086;2022-12-29T07:12:33;10.90;1.00
290;DHT22;13193;48.874;9.086;2022-12-29T07:14:59;10.80;1.00
290;DHT22;13193;48.874;9.086;2022-12-29T07:17:25;10.70;1.00
290;DHT22;13193;48.874;9.086;2022-12-29T07:19:50;10.70;1.00
290;DHT22;13193;48.874;9.086;2022-12-29T07:22:16;10.80;1.00
290;DHT22;13193;48.874;9.086;2022-12-29T07:24:41;10.60;1.00
290;DHT22;13193;48.874;9.086;2022-12-29T07:27:08;10.80;1.00
290;DHT22;13193;48.874;9.086;2022-12-29T07:29:36;10.80;1.00
290;DHT22;13193;48.874;9.086;2022-12-29T07:32:02;10.80;1.00
290;DHT22;13193;48.874;9.086;2022-12-29T07:34:28;10.90;1.00
290;DHT22;13193;48.874;9.086;2022-12-29T07:36:53;11.00;1.00
290;DHT22;13193;48.874;9.086;2022-12-29T07:39:20;11.20;1.00
290;DHT22;13193;48.874;9.086;2022-12-29T07:41:46;11.10;1.00
290;DHT22;13193;48.874;9.086;2022-12-29T07:44:13;11.20;1.00
290;DHT22;13193;48.874;9.086;2022-12-29T07:46:39;11.50;1.00
290;DHT22;13193;48.874;9.086;2022-12-29T07:49:04;11.40;1.00
290;DHT22;13193;48.874;9.086;2022-12-29T07:51:30;11.40;1.00
290;DHT22;13193;48.874;9.086;2022-12-29T07:53:56;11.50;1.00
290;DHT22;13193;48.874;9.086;2022-12-29T07:56:26;11.40;1.00
290;DHT22;13193;48.874;9.086;2022-12-29T07:58:52;11.50;1.00
290;DHT22;13193;48.874;9.086;2022-12-29T08:01:24;11.50;1.00
290;DHT22;13193;48.874;9.086;2022-12-29T08:03:49;11.50;1.00
290;DHT22;13193;48.874;9.086;2022-12-29T08:06:15;11.60;1.00
290;DHT22;13193;48.874;9.086;2022-12-29T08:08:41;11.60;1.00
290;DHT22;13193;48.874;9.086;2022-12-29T08:11:06;11.70;1.00
290;DHT22;13193;48.874;9.086;2022-12-29T08:13:34;11.60;1.00
290;DHT22;13193;48.874;9.086;2022-12-29T08:16:00;11.90;1.00
290;DHT22;13193;48.874;9.086;2022-12-29T08:18:25;11.90;1.00
290;DHT22;13193;48.874;9.086;2022-12-29T08:20:51;11.60;1.00
290;DHT22;13193;48.874;9.086;2022-12-29T08:23:16;11.70;1.00
290;DHT22;13193;48.874;9.086;2022-12-29T08:25:42;11.80;1.00
290;DHT22;13193;48.874;9.086;2022-12-29T08:28:08;11.70;1.00
290;DHT22;13193;48.874;9.086;2022-12-29T08:30:33;11.70;1.00
290;DHT22;13193;48.874;9.086;2022-12-29T08:32:59;11.70;1.00
290;DHT22;13193;48.874;9.086;2022-12-29T08:35:24;11.70;1.00
290;DHT22;13193;48.874;9.086;2022-12-29T08:37:50;11.70;1.00
290;DHT22;13193;48.874;9.086;2022-12-29T08:40:17;11.80;1.00
290;DHT22;13193;48.874;9.086;2022-12-29T08:42:43;11.70;1.00
290;DHT22;13193;48.874;9.086;2022-12-29T08:45:11;11.70;1.00
290;DHT22;13193;48.874;9.086;2022-12-29T08:47:36;11.80;1.00
290;DHT22;13193;48.874;9.086;2022-12-29T08:50:02;11.80;1.00
290;DHT22;13193;48.874;9.086;2022-12-29T08:52:28;11.90;1.00
290;DHT22;13193;48.874;9.086;2022-12-29T08:54:54;12.00;1.00
290;DHT22;13193;48.874;9.086;2022-12-29T08:57:20;12.10;1.00
290;DHT22;13193;48.874;9.086;2022-12-29T08:59:46;12.20;1.00
290;DHT22;13193;48.874;9.086;2022-12-29T09:02:13;12.20;1.00
290;DHT22;13193;48.874;9.086;2022-12-29T09:04:39;12.20;1.00
290;DHT22;13193;48.874;9.086;2022-12-29T09:07:07;12.50;1.00
290;DHT22;13193;48.874;9.086;2022-12-29T09:09:33;12.50;1.00
290;DHT22;13193;48.874;9.086;2022-12-29T09:11:59;12.70;1.00
290;DHT22;13193;48.874;9.086;2022-12-29T09:14:25;12.90;1.00
290;DHT22;13193;48.874;9.086;2022-12-29T09:16:53;13.10;1.00
290;DHT22;13193;48.874;9.086;2022-12-29T09:19:37;13.20;1.00
290;DHT22;13193;48.874;9.086;2022-12-29T09:22:03;13.40;1.00
290;DHT22;13193;48.874;9.086;2022-12-29T09:24:29;13.50;1.00
290;DHT22;13193;48.874;9.086;2022-12-29T09:26:54;13.60;1.00
290;DHT22;13193;48.874;9.086;2022-12-29T09:29:20;13.70;1.00
290;DHT22;13193;48.874;9.086;2022-12-29T09:31:46;13.80;1.00
290;DHT22;13193;48.874;9.086;2022-12-29T09:34:12;13.90;1.00
290;DHT22;13193;48.874;9.086;2022-12-29T09:36:38;14.00;1.00
290;DHT22;13193;48.874;9.086;2022-12-29T09:39:03;14.10;1.00
290;DHT22;13193;48.874;9.086;2022-12-29T09:41:57;14.20;1.00
290;DHT22;13193;48.874;9.086;2022-12-29T09:47:16;14.50;1.00
290;DHT22;13193;48.874;9.086;2022-12-29T09:49:47;14.60;1.00
290;DHT22;13193;48.874;9.086;2022-12-29T09:52:29;14.70;1.00
290;DHT22;13193;48.874;9.086;2022-12-29T09:55:10;14.80;1.00
290;DHT22;13193;48.874;9.086;2022-12-29T09:57:48;14.90;1.00
290;DHT22;13193;48.874;9.086;2022-12-29T10:00:20;15.00;1.00
290;DHT22;13193;48.874;9.086;2022-12-29T10:13:39;15.00;1.00
290;DHT22;13193;48.874;9.086;2022-12-29T10:16:27;15.00;1.00
290;DHT22;13193;48.874;9.086;2022-12-29T10:24:12;15.00;1.00
290;DHT22;13193;48.874;9.086;2022-12-29T10:26:41;15.10;1.00
290;DHT22;13193;48.874;9.086;2022-12-29T10:32:01;15.50;1.00
290;DHT22;13193;48.874;9.086;2022-12-29T10:34:36;15.60;1.00
290;DHT22;13193;48.874;9.086;2022-12-29T10:43:00;15.70;1.00
290;DHT22;13193;48.874;9.086;2022-12-29T10:45:29;15.70;1.00
290;DHT22;13193;48.874;9.086;2022-12-29T10:48:05;15.60;1.00
290;DHT22;13193;48.874;9.086;2022-12-29T10:50:34;15.50;1.00
290;DHT22;13193;48.874;9.086;2022-12-29T10:53:02;15.40;1.00
290;DHT22;13193;48.874;9.086;2022-12-29T10:55:35;15.40;1.00
290;DHT22;13193;48.874;9.086;2022-12-29T10:58:04;15.50;1.00
290;DHT22;13193;48.874;9.086;2022-12-29T11:00:31;15.60;1.00
290;DHT22;13193;48.874;9.086;2022-12-29T11:08:25;15.60;1.00
290;DHT22;13193;48.874;9.086;2022-12-29T11:11:06;15.60;1.00
290;DHT22;13193;48.874;9.086;2022-12-29T11:13:34;15.70;1.00
290;DHT22;13193;48.874;9.086;2022-12-29T11:16:00;15.80;1.00
290;DHT22;13193;48.874;9.086;2022-12-29T11:18:37;15.80;1.00
290;DHT22;13193;48.874;9.086;2022-12-29T11:21:05;16.00;1.00
290;DHT22;13193;48.874;9.086;2022-12-29T11:23:41;16.10;1.00
290;DHT22;13193;48.874;9.086;2022-12-29T11:26:19;16.20;1.00
290;DHT22;13193;48.874;9.086;2022-12-29T11:29:03;16.20;1.00
290;DHT22;13193;48.874;9.086;2022-12-29T11:31:29;16.30;1.00
290;DHT22;13193;48.874;9.086;2022-12-29T11:33:55;16.30;1.00
290;DHT22;13193;48.874;9.086;2022-12-29T11:36:22;16.20;1.00
290;DHT22;13193;48.874;9.086;2022-12-29T11:38:53;16.10;1.00
290;DHT22;13193;48.874;9.086;2022-12-29T11:41:25;16.10;1.00
290;DHT22;13193;48.874;9.086;2022-12-29T11:43:52;16.00;1.00
290;DHT22;13193;48.874;9.086;2022-12-29T11:46:31;15.90;1.00
290;DHT22;13193;48.874;9.086;2022-12-29T11:49:00;15.80;1.00
290;DHT22;13193;48.874;9.086;2022-12-29T11:51:29;15.70;1.00
290;DHT22;13193;48.874;9.086;2022-12-29T11:53:58;15.70;1.00
290;DHT22;13193;48.874;9.086;2022-12-29T11:56:39;15.50;1.00
290;DHT22;13193;48.874;9.086;2022-12-29T11:59:36;15.40;1.00
290;DHT22;13193;48.874;9.086;2022-12-29T12:04:57;15.30;1.00
290;DHT22;13193;48.874;9.086;2022-12-29T12:07:44;15.20;1.00
290;DHT22;13193;48.874;9.086;2022-12-29T12:10:37;15.10;1.00
290;DHT22;13193;48.874;9.086;2022-12-29T12:13:31;14.90;1.00
290;DHT22;13193;48.874;9.086;2022-12-29T12:16:12;15.00;1.00
290;DHT22;13193;48.874;9.086;2022-12-29T12:19:00;15.00;1.00
290;DHT22;13193;48.874;9.086;2022-12-29T12:21:32;15.00;1.00
290;DHT22;13193;48.874;9.086;2022-12-29T12:24:21;15.10;1.00
290;DHT22;13193;48.874;9.086;2022-12-29T12:26:59;15.10;1.00
290;DHT22;13193;48.874;9.086;2022-12-29T12:29:37;15.10;1.00
290;DHT22;13193;48.874;9.086;2022-12-29T12:32:20;15.20;1.00
290;DHT22;13193;48.874;9.086;2022-12-29T12:34:48;15.30;1.00
290;DHT22;13193;48.874;9.086;2022-12-29T13:00:04;16.00;1.00
290;DHT22;13193;48.874;9.086;2022-12-29T13:02:44;16.10;1.00
290;DHT22;13193;48.874;9.086;2022-12-29T13:08:31;16.10;1.00
290;DHT22;13193;48.874;9.086;2022-12-29T13:22:19;16.00;1.00
290;DHT22;13193;48.874;9.086;2022-12-29T13:27:59;15.90;1.00
290;DHT22;13193;48.874;9.086;2022-12-29T13:30:34;15.80;1.00
290;DHT22;13193;48.874;9.086;2022-12-29T13:33:10;15.80;1.00
290;DHT22;13193;48.874;9.086;2022-12-29T13:41:02;15.20;1.00
290;DHT22;13193;48.874;9.086;2022-12-29T13:43:30;15.00;1.00
290;DHT22;13193;48.874;9.086;2022-12-29T13:46:09;14.90;1.00
290;DHT22;13193;48.874;9.086;2022-12-29T13:48:58;14.80;1.00
290;DHT22;13193;48.874;9.086;2022-12-29T13:51:24;14.70;1.00
290;DHT22;13193;48.874;9.086;2022-12-29T13:54:11;14.60;1.00
290;DHT22;13193;48.874;9.086;2022-12-29T13:59:57;14.50;1.00
290;DHT22;13193;48.874;9.086;2022-12-29T14:07:44;14.30;1.00
290;DHT22;13193;48.874;9.086;2022-12-29T14:10:35;14.30;1.00
290;DHT22;13193;48.874;9.086;2022-12-29T14:13:16;14.20;1.00
290;DHT22;13193;48.874;9.086;2022-12-29T14:15:45;14.20;1.00
290;DHT22;13193;48.874;9.086;2022-12-29T14:18:19;14.20;1.00
290;DHT22;13193;48.874;9.086;2022-12-29T14:28:47;13.90;1.00
290;DHT22;13193;48.874;9.086;2022-12-29T14:36:43;13.80;1.00
290;DHT22;13193;48.874;9.086;2022-12-29T14:42:01;13.80;1.00
290;DHT22;13193;48.874;9.086;2022-12-29T14:44:28;13.70;1.00
290;DHT22;13193;48.874;9.086;2022-12-29T14:49:22;13.70;1.00
290;DHT22;13193;48.874;9.086;2022-12-29T14:51:52;13.70;1.00
290;DHT22;13193;48.874;9.086;2022-12-29T14:54:42;13.70;1.00
290;DHT22;13193;48.874;9.086;2022-12-29T14:57:19;13.70;1.00
290;DHT22;13193;48.874;9.086;2022-12-29T14:59:46;13.70;1.00
290;DHT22;13193;48.874;9.086;2022-12-29T15:02:19;13.70;1.00
290;DHT22;13193;48.874;9.086;2022-12-29T15:04:47;13.60;1.00
290;DHT22;13193;48.874;9.086;2022-12-29T15:07:13;13.50;1.00
290;DHT22;13193;48.874;9.086;2022-12-29T15:09:44;13.50;1.00
290;DHT22;13193;48.874;9.086;2022-12-29T15:12:30;13.50;1.00
290;DHT22;13193;48.874;9.086;2022-12-29T15:14:57;13.40;1.00
290;DHT22;13193;48.874;9.086;2022-12-29T15:17:27;13.20;1.00
290;DHT22;13193;48.874;9.086;2022-12-29T15:19:54;13.10;1.00
290;DHT22;13193;48.874;9.086;2022-12-29T15:22:20;12.90;1.00
290;DHT22;13193;48.874;9.086;2022-12-29T15:24:46;12.70;1.00
290;DHT22;13193;48.874;9.086;2022-12-29T15:27:18;12.70;1.00
290;DHT22;13193;48.874;9.086;2022-12-29T15:29:45;12.70;1.00
290;DHT22;13193;48.874;9.086;2022-12-29T15:32:21;12.80;1.00
290;DHT22;13193;48.874;9.086;2022-12-29T15:34:53;12.50;1.00
290;DHT22;13193;48.874;9.086;2022-12-29T15:37:25;11.90;1.00
290;DHT22;13193;48.874;9.086;2022-12-29T15:39:52;11.40;1.00
290;DHT22;13193;48.874;9.086;2022-12-29T15:44:56;10.80;1.00
290;DHT22;13193;48.874;9.086;2022-12-29T15:47:28;10.60;1.00
290;DHT22;13193;48.874;9.086;2022-12-29T15:50:06;10.50;1.00
290;DHT22;13193;48.874;9.086;2022-12-29T15:52:34;10.30;1.00
290;DHT22;13193;48.874;9.086;2022-12-29T15:55:01;10.30;1.00
290;DHT22;13193;48.874;9.086;2022-12-29T15:57:30;10.20;1.00
290;DHT22;13193;48.874;9.086;2022-12-29T15:59:57;10.10;1.00
290;DHT22;13193;48.874;9.086;2022-12-29T16:02:25;10.10;1.00
290;DHT22;13193;48.874;9.086;2022-12-29T16:04:59;10.10;1.00
290;DHT22;13193;48.874;9.086;2022-12-29T16:07:30;10.10;1.00
290;DHT22;13193;48.874;9.086;2022-12-29T16:09:58;10.10;1.00
290;DHT22;13193;48.874;9.086;2022-12-29T16:12:35;10.20;1.00
290;DHT22;13193;48.874;9.086;2022-12-29T16:15:03;10.10;1.00
290;DHT22;13193;48.874;9.086;2022-12-29T16:17:41;10.10;1.00
290;DHT22;13193;48.874;9.086;2022-12-29T16:20:18;10.00;1.00
290;DHT22;13193;48.874;9.086;2022-12-29T16:22:54;10.00;1.00
290;DHT22;13193;48.874;9.086;2022-12-29T16:25:32;10.10;1.00
290;DHT22;13193;48.874;9.086;2022-12-29T16:28:02;10.00;1.00
290;DHT22;13193;48.874;9.086;2022-12-29T16:30:31;10.10;1.00
290;DHT22;13193;48.874;9.086;2022-12-29T16:32:59;10.10;1.00
290;DHT22;13193;48.874;9.086;2022-12-29T16:35:37;10.10;1.00
290;DHT22;13193;48.874;9.086;2022-12-29T16:38:22;10.20;1.00
290;DHT22;13193;48.874;9.086;2022-12-29T16:40:59;10.10;1.00
290;DHT22;13193;48.874;9.086;2022-12-29T16:43:35;10.10;1.00
290;DHT22;13193;48.874;9.086;2022-12-29T16:46:33;10.20;1.00
290;DHT22;13193;48.874;9.086;2022-12-29T16:48:59;10.20;1.00
290;DHT22;13193;48.874;9.086;2022-12-29T16:51:35;10.30;1.00
290;DHT22;13193;48.874;9.086;2022-12-29T16:54:02;10.40;1.00
290;DHT22;13193;48.874;9.086;2022-12-29T16:56:31;10.50;1.00
290;DHT22;13193;48.874;9.086;2022-12-29T17:02:14;10.50;1.00
290;DHT22;13193;48.874;9.086;2022-12-29T17:04:40;10.50;1.00
290;DHT22;13193;48.874;9.086;2022-12-29T17:07:17;10.50;1.00
290;DHT22;13193;48.874;9.086;2022-12-29T17:09:43;10.40;1.00
290;DHT22;13193;48.874;9.086;2022-12-29T17:12:17;10.40;1.00
290;DHT22;13193;48.874;9.086;2022-12-29T17:14:47;10.40;1.00
290;DHT22;13193;48.874;9.086;2022-12-29T17:17:39;10.40;1.00
290;DHT22;13193;48.874;9.086;2022-12-29T17:20:28;10.50;1.00
290;DHT22;13193;48.874;9.086;2022-12-29T17:22:56;10.60;1.00
290;DHT22;13193;48.874;9.086;2022-12-29T17:25:36;10.50;1.00
290;DHT22;13193;48.874;9.086;2022-12-29T17:30:41;10.50;1.00
290;DHT22;13193;48.874;9.086;2022-12-29T17:33:12;10.60;1.00
290;DHT22;13193;48.874;9.086;2022-12-29T17:35:39;10.50;1.00
290;DHT22;13193;48.874;9.086;2022-12-29T17:38:29;10.40;1.00
290;DHT22;13193;48.874;9.086;2022-12-29T17:40:55;10.50;1.00
290;DHT22;13193;48.874;9.086;2022-12-29T17:43:21;10.40;1.00
290;DHT22;13193;48.874;9.086;2022-12-29T17:45:51;10.40;1.00
290;DHT22;13193;48.874;9.086;2022-12-29T17:48:18;10.40;1.00
290;DHT22;13193;48.874;9.086;2022-12-29T17:50:45;10.50;1.00
290;DHT22;13193;48.874;9.086;2022-12-29T17:53:14;10.50;1.00
290;DHT22;13193;48.874;9.086;2022-12-29T17:55:45;10.50;1.00
290;DHT22;13193;48.874;9.086;2022-12-29T17:58:25;10.60;1.00
290;DHT22;13193;48.874;9.086;2022-12-29T18:00:54;10.60;1.00
290;DHT22;13193;48.874;9.086;2022-12-29T18:03:33;10.60;1.00
290;DHT22;13193;48.874;9.086;2022-12-29T18:06:01;10.70;1.00
290;DHT22;13193;48.874;9.086;2022-12-29T18:08:26;10.50;1.00
290;DHT22;13193;48.874;9.086;2022-12-29T18:10:55;10.50;1.00
290;DHT22;13193;48.874;9.086;2022-12-29T18:13:26;10.50;1.00
290;DHT22;13193;48.874;9.086;2022-12-29T18:15:53;10.50;1.00
290;DHT22;13193;48.874;9.086;2022-12-29T18:18:24;10.40;1.00
290;DHT22;13193;48.874;9.086;2022-12-29T18:20:52;10.40;1.00
290;DHT22;13193;48.874;9.086;2022-12-29T18:23:19;10.40;1.00
290;DHT22;13193;48.874;9.086;2022-12-29T18:25:49;10.30;1.00
290;DHT22;13193;48.874;9.086;2022-12-29T18:28:16;10.20;1.00
290;DHT22;13193;48.874;9.086;2022-12-29T18:30:42;10.20;1.00
290;DHT22;13193;48.874;9.086;2022-12-29T18:33:14;10.10;1.00
290;DHT22;13193;48.874;9.086;2022-12-29T18:35:49;10.10;1.00
290;DHT22;13193;48.874;9.086;2022-12-29T18:38:16;10.10;1.00
290;DHT22;13193;48.874;9.086;2022-12-29T18:40:42;10.20;1.00
290;DHT22;13193;48.874;9.086;2022-12-29T18:43:13;10.10;1.00
290;DHT22;13193;48.874;9.086;2022-12-29T18:45:39;9.90;1.00
290;DHT22;13193;48.874;9.086;2022-12-29T18:48:05;10.30;1.00
290;DHT22;13193;48.874;9.086;2022-12-29T18:50:33;9.90;1.00
290;DHT22;13193;48.874;9.086;2022-12-29T18:52:59;10.00;1.00
290;DHT22;13193;48.874;9.086;2022-12-29T18:55:27;10.00;1.00
290;DHT22;13193;48.874;9.086;2022-12-29T18:57:53;10.00;1.00
290;DHT22;13193;48.874;9.086;2022-12-29T19:00:20;10.00;1.00
290;DHT22;13193;48.874;9.086;2022-12-29T19:02:47;10.20;1.00
290;DHT22;13193;48.874;9.086;2022-12-29T19:05:23;10.10;1.00
290;DHT22;13193;48.874;9.086;2022-12-29T19:07:49;10.00;1.00